Aviation Digital Data Service (ADDS)

Output produced by METARs form (0533 UTC 16 February 2019)
found at http://www.aviationweather.gov/metar/data/
 
Forecast for: LMML (LUQA/MALTA , MT)
Text: TAF LMML 160500Z 1606/1706 04018KT 9999 SCT020
Forecast period: 0600 UTC 16 February 2019 to 0600 UTC 17 February 2019
Forecast type: FROM: standard forecast or significant change
Winds: from the NE (40 degrees) at 21 MPH (18 knots; 9.3 m/s)
Visibility: 6 or more miles 10+ km)
Ceiling: at least 12,000 feet AGL
Clouds: scattered clouds at 2000 feet AGL
Weather: no significant weather forecast for this period
Text: PROB40 1606/1612 7000
Forecast period: 0600 to 1200 UTC 16 February 2019
Forecast type: PROBABLE: 40 percent likelihood of the following during this time
Visibility: 4 miles (7 km)
Ceiling: unknown
Clouds: missing
Weather: no significant weather forecast for this period